sensor_id;sensor_type;location;lat;lon;timestamp;pressure;altitude;pressure_sealevel;temperature;humidity
47274;BME280;33007;49.082;19.306;2022-08-21T00:00:23;95586.38;;;17.68;100.00
47274;BME280;33007;49.082;19.306;2022-08-21T00:02:53;95651.72;;;18.07;100.00
47274;BME280;33007;49.082;19.306;2022-08-21T00:05:21;95592.41;;;17.66;100.00
47274;BME280;33007;49.082;19.306;2022-08-21T00:07:47;95599.44;;;17.80;100.00
47274;BME280;33007;49.082;19.306;2022-08-21T00:10:13;95637.88;;;18.13;100.00
47274;BME280;33007;49.082;19.306;2022-08-21T00:12:40;95633.97;;;18.21;100.00
47274;BME280;33007;49.082;19.306;2022-08-21T00:15:09;95619.59;;;18.15;100.00
47274;BME280;33007;49.082;19.306;2022-08-21T00:17:35;95579.22;;;17.97;100.00
47274;BME280;33007;49.082;19.306;2022-08-21T00:20:01;95540.22;;;17.66;100.00
47274;BME280;33007;49.082;19.306;2022-08-21T00:22:27;95617.47;;;18.08;100.00
47274;BME280;33007;49.082;19.306;2022-08-21T00:24:52;95572.81;;;17.75;100.00
47274;BME280;33007;49.082;19.306;2022-08-21T00:27:18;95585.19;;;17.82;100.00
47274;BME280;33007;49.082;19.306;2022-08-21T00:29:43;95590.56;;;17.74;100.00
47274;BME280;33007;49.082;19.306;2022-08-21T00:32:09;95583.81;;;17.75;100.00
47274;BME280;33007;49.082;19.306;2022-08-21T00:34:34;95582.09;;;17.72;100.00
47274;BME280;33007;49.082;19.306;2022-08-21T00:37:00;95576.38;;;17.70;100.00
47274;BME280;33007;49.082;19.306;2022-08-21T00:39:25;95562.00;;;17.64;100.00
47274;BME280;33007;49.082;19.306;2022-08-21T00:41:51;95558.50;;;17.64;100.00
47274;BME280;33007;49.082;19.306;2022-08-21T00:44:16;95580.53;;;17.77;100.00
47274;BME280;33007;49.082;19.306;2022-08-21T00:46:42;95616.19;;;17.96;100.00
47274;BME280;33007;49.082;19.306;2022-08-21T00:49:10;95615.00;;;17.91;100.00
47274;BME280;33007;49.082;19.306;2022-08-21T00:51:45;95577.19;;;17.65;100.00
47274;BME280;33007;49.082;19.306;2022-08-21T00:54:13;95570.72;;;17.63;100.00
47274;BME280;33007;49.082;19.306;2022-08-21T00:56:40;95581.78;;;17.76;100.00
47274;BME280;33007;49.082;19.306;2022-08-21T00:59:06;95573.84;;;17.72;100.00
47274;BME280;33007;49.082;19.306;2022-08-21T01:01:32;95582.22;;;17.80;100.00
47274;BME280;33007;49.082;19.306;2022-08-21T01:03:57;95575.03;;;17.77;100.00
47274;BME280;33007;49.082;19.306;2022-08-21T01:06:23;95579.41;;;17.86;100.00
47274;BME280;33007;49.082;19.306;2022-08-21T01:08:48;95502.69;;;17.42;100.00
47274;BME280;33007;49.082;19.306;2022-08-21T01:11:17;95563.75;;;17.94;100.00
47274;BME280;33007;49.082;19.306;2022-08-21T01:13:43;95609.38;;;18.29;100.00
47274;BME280;33007;49.082;19.306;2022-08-21T01:16:12;95614.22;;;18.23;100.00
47274;BME280;33007;49.082;19.306;2022-08-21T01:18:39;95621.59;;;18.15;100.00
47274;BME280;33007;49.082;19.306;2022-08-21T01:21:16;95625.63;;;18.14;100.00
47274;BME280;33007;49.082;19.306;2022-08-21T01:23:46;95633.88;;;18.14;100.00
47274;BME280;33007;49.082;19.306;2022-08-21T01:26:13;95645.47;;;18.06;100.00
47274;BME280;33007;49.082;19.306;2022-08-21T01:28:44;95575.81;;;17.59;100.00
47274;BME280;33007;49.082;19.306;2022-08-21T01:31:10;95622.53;;;18.04;100.00
47274;BME280;33007;49.082;19.306;2022-08-21T01:33:37;95599.84;;;18.17;100.00
47274;BME280;33007;49.082;19.306;2022-08-21T01:36:03;95526.03;;;17.81;100.00
47274;BME280;33007;49.082;19.306;2022-08-21T01:38:29;95531.97;;;17.85;100.00
47274;BME280;33007;49.082;19.306;2022-08-21T01:40:54;95554.94;;;18.01;100.00
47274;BME280;33007;49.082;19.306;2022-08-21T01:43:19;95518.84;;;17.78;100.00
47274;BME280;33007;49.082;19.306;2022-08-21T01:45:45;95540.22;;;17.85;100.00
47274;BME280;33007;49.082;19.306;2022-08-21T01:48:10;95555.44;;;17.99;100.00
47274;BME280;33007;49.082;19.306;2022-08-21T01:50:36;95562.44;;;18.00;100.00
47274;BME280;33007;49.082;19.306;2022-08-21T01:53:02;95546.22;;;17.84;100.00
47274;BME280;33007;49.082;19.306;2022-08-21T01:55:28;95536.19;;;17.86;100.00
47274;BME280;33007;49.082;19.306;2022-08-21T01:57:57;95520.56;;;17.81;100.00
47274;BME280;33007;49.082;19.306;2022-08-21T02:00:23;95558.41;;;18.15;100.00
47274;BME280;33007;49.082;19.306;2022-08-21T02:02:49;95534.38;;;17.89;100.00
47274;BME280;33007;49.082;19.306;2022-08-21T02:05:15;95552.47;;;18.11;100.00
47274;BME280;33007;49.082;19.306;2022-08-21T02:07:44;95545.06;;;18.05;100.00
47274;BME280;33007;49.082;19.306;2022-08-21T02:10:12;95557.25;;;18.10;100.00
47274;BME280;33007;49.082;19.306;2022-08-21T02:12:37;95512.84;;;17.79;100.00
47274;BME280;33007;49.082;19.306;2022-08-21T02:15:06;95556.72;;;18.12;100.00
47274;BME280;33007;49.082;19.306;2022-08-21T02:17:46;95559.47;;;18.12;100.00
47274;BME280;33007;49.082;19.306;2022-08-21T02:20:18;95564.13;;;18.17;100.00
47274;BME280;33007;49.082;19.306;2022-08-21T02:22:44;95510.00;;;17.85;100.00
47274;BME280;33007;49.082;19.306;2022-08-21T02:25:09;95514.75;;;17.85;100.00
47274;BME280;33007;49.082;19.306;2022-08-21T02:27:40;95550.06;;;18.07;100.00
47274;BME280;33007;49.082;19.306;2022-08-21T02:30:10;95563.06;;;18.20;100.00
47274;BME280;33007;49.082;19.306;2022-08-21T02:32:36;95520.25;;;17.85;100.00
47274;BME280;33007;49.082;19.306;2022-08-21T02:35:02;95531.34;;;17.92;100.00
47274;BME280;33007;49.082;19.306;2022-08-21T02:37:28;95471.50;;;17.59;100.00
47274;BME280;33007;49.082;19.306;2022-08-21T02:39:54;95498.44;;;17.73;100.00
47274;BME280;33007;49.082;19.306;2022-08-21T02:42:19;95523.34;;;18.08;100.00
47274;BME280;33007;49.082;19.306;2022-08-21T02:44:45;95514.34;;;18.07;100.00
47274;BME280;33007;49.082;19.306;2022-08-21T02:47:10;95506.41;;;18.03;100.00
47274;BME280;33007;49.082;19.306;2022-08-21T02:49:36;95528.81;;;18.21;100.00
47274;BME280;33007;49.082;19.306;2022-08-21T02:52:01;95489.72;;;17.88;100.00
47274;BME280;33007;49.082;19.306;2022-08-21T02:54:27;95527.66;;;18.03;100.00
47274;BME280;33007;49.082;19.306;2022-08-21T02:56:52;95516.34;;;17.93;100.00
47274;BME280;33007;49.082;19.306;2022-08-21T02:59:18;95519.72;;;17.86;100.00
47274;BME280;33007;49.082;19.306;2022-08-21T03:01:44;95506.00;;;17.67;100.00
47274;BME280;33007;49.082;19.306;2022-08-21T03:04:09;95527.97;;;17.86;100.00
47274;BME280;33007;49.082;19.306;2022-08-21T03:06:35;95498.63;;;17.62;100.00
47274;BME280;33007;49.082;19.306;2022-08-21T03:09:01;95516.84;;;17.78;100.00
47274;BME280;33007;49.082;19.306;2022-08-21T03:11:26;95543.59;;;17.91;100.00
47274;BME280;33007;49.082;19.306;2022-08-21T03:13:52;95572.56;;;18.05;100.00
47274;BME280;33007;49.082;19.306;2022-08-21T03:16:17;95544.53;;;17.94;100.00
47274;BME280;33007;49.082;19.306;2022-08-21T03:18:44;95542.31;;;17.92;100.00
47274;BME280;33007;49.082;19.306;2022-08-21T03:21:10;95471.34;;;17.38;100.00
47274;BME280;33007;49.082;19.306;2022-08-21T03:23:36;95557.56;;;18.06;100.00
47274;BME280;33007;49.082;19.306;2022-08-21T03:26:02;95542.22;;;17.85;100.00
47274;BME280;33007;49.082;19.306;2022-08-21T03:28:28;95470.38;;;17.35;100.00
47274;BME280;33007;49.082;19.306;2022-08-21T03:30:54;95514.59;;;17.64;100.00
47274;BME280;33007;49.082;19.306;2022-08-21T03:33:20;95477.25;;;17.42;100.00
47274;BME280;33007;49.082;19.306;2022-08-21T03:35:57;95564.75;;;17.96;100.00
47274;BME280;33007;49.082;19.306;2022-08-21T03:38:27;95563.34;;;17.90;100.00
47274;BME280;33007;49.082;19.306;2022-08-21T03:40:53;95565.34;;;17.89;100.00
47274;BME280;33007;49.082;19.306;2022-08-21T03:43:18;95521.94;;;17.55;100.00
47274;BME280;33007;49.082;19.306;2022-08-21T03:45:44;95521.31;;;17.63;100.00
47274;BME280;33007;49.082;19.306;2022-08-21T03:48:10;95526.06;;;17.62;100.00
47274;BME280;33007;49.082;19.306;2022-08-21T03:50:39;95574.00;;;17.93;100.00
47274;BME280;33007;49.082;19.306;2022-08-21T03:53:05;95519.09;;;17.61;100.00
47274;BME280;33007;49.082;19.306;2022-08-21T03:55:31;95533.41;;;17.73;100.00
47274;BME280;33007;49.082;19.306;2022-08-21T03:57:57;95516.59;;;17.63;100.00
47274;BME280;33007;49.082;19.306;2022-08-21T04:00:23;95536.16;;;17.73;100.00
47274;BME280;33007;49.082;19.306;2022-08-21T04:02:49;95520.06;;;17.64;100.00
47274;BME280;33007;49.082;19.306;2022-08-21T04:05:17;95484.09;;;17.35;100.00
47274;BME280;33007;49.082;19.306;2022-08-21T04:08:04;95563.34;;;17.90;100.00
47274;BME280;33007;49.082;19.306;2022-08-21T04:10:32;95573.81;;;18.04;100.00
47274;BME280;33007;49.082;19.306;2022-08-21T04:12:59;95519.34;;;17.63;100.00
47274;BME280;33007;49.082;19.306;2022-08-21T04:15:25;95545.69;;;17.85;100.00
47274;BME280;33007;49.082;19.306;2022-08-21T04:17:51;95523.66;;;17.72;100.00
47274;BME280;33007;49.082;19.306;2022-08-21T04:20:18;95533.09;;;17.76;100.00
47274;BME280;33007;49.082;19.306;2022-08-21T04:22:44;95545.69;;;17.85;100.00
47274;BME280;33007;49.082;19.306;2022-08-21T04:25:10;95560.72;;;17.97;100.00
47274;BME280;33007;49.082;19.306;2022-08-21T04:27:36;95587.59;;;18.18;100.00
47274;BME280;33007;49.082;19.306;2022-08-21T04:30:03;95582.53;;;18.22;100.00
47274;BME280;33007;49.082;19.306;2022-08-21T04:32:29;95568.22;;;18.10;100.00
47274;BME280;33007;49.082;19.306;2022-08-21T04:35:00;95589.94;;;18.27;100.00
47274;BME280;33007;49.082;19.306;2022-08-21T04:37:27;95587.94;;;18.27;100.00
47274;BME280;33007;49.082;19.306;2022-08-21T04:39:52;95551.25;;;18.12;100.00
47274;BME280;33007;49.082;19.306;2022-08-21T04:42:18;95551.34;;;18.19;100.00
47274;BME280;33007;49.082;19.306;2022-08-21T04:44:43;95545.94;;;18.14;100.00
47274;BME280;33007;49.082;19.306;2022-08-21T04:47:09;95537.06;;;18.08;100.00
47274;BME280;33007;49.082;19.306;2022-08-21T04:49:34;95573.84;;;18.31;100.00
47274;BME280;33007;49.082;19.306;2022-08-21T04:52:00;95571.53;;;18.22;100.00
47274;BME280;33007;49.082;19.306;2022-08-21T04:54:26;95588.75;;;18.36;100.00
47274;BME280;33007;49.082;19.306;2022-08-21T04:57:01;95551.34;;;18.06;100.00
47274;BME280;33007;49.082;19.306;2022-08-21T04:59:35;95561.50;;;18.24;100.00
47274;BME280;33007;49.082;19.306;2022-08-21T05:02:02;95568.91;;;18.29;100.00
47274;BME280;33007;49.082;19.306;2022-08-21T05:04:30;95598.41;;;18.55;100.00
47274;BME280;33007;49.082;19.306;2022-08-21T05:07:00;95527.66;;;18.16;100.00
47274;BME280;33007;49.082;19.306;2022-08-21T05:09:27;95553.78;;;18.23;100.00
47274;BME280;33007;49.082;19.306;2022-08-21T05:11:53;95560.22;;;18.25;100.00
47274;BME280;33007;49.082;19.306;2022-08-21T05:14:19;95579.56;;;18.46;100.00
47274;BME280;33007;49.082;19.306;2022-08-21T05:16:45;95567.41;;;18.42;100.00
47274;BME280;33007;49.082;19.306;2022-08-21T05:19:11;95608.38;;;18.72;100.00
47274;BME280;33007;49.082;19.306;2022-08-21T05:21:40;95574.94;;;18.54;100.00
47274;BME280;33007;49.082;19.306;2022-08-21T05:24:06;95561.41;;;18.43;100.00
47274;BME280;33007;49.082;19.306;2022-08-21T05:26:32;95612.59;;;18.73;100.00
47274;BME280;33007;49.082;19.306;2022-08-21T05:28:57;95603.06;;;18.61;100.00
47274;BME280;33007;49.082;19.306;2022-08-21T05:31:23;95570.50;;;18.38;100.00
47274;BME280;33007;49.082;19.306;2022-08-21T05:33:49;95571.63;;;18.43;100.00
47274;BME280;33007;49.082;19.306;2022-08-21T05:36:14;95570.50;;;18.38;100.00
47274;BME280;33007;49.082;19.306;2022-08-21T05:38:40;95584.34;;;18.46;100.00
47274;BME280;33007;49.082;19.306;2022-08-21T05:41:05;95588.03;;;18.48;100.00
47274;BME280;33007;49.082;19.306;2022-08-21T05:43:32;95588.56;;;18.47;100.00
47274;BME280;33007;49.082;19.306;2022-08-21T05:46:04;95571.84;;;18.31;100.00
47274;BME280;33007;49.082;19.306;2022-08-21T05:48:31;95627.06;;;18.73;100.00
47274;BME280;33007;49.082;19.306;2022-08-21T05:50:57;95581.69;;;18.53;100.00
47274;BME280;33007;49.082;19.306;2022-08-21T05:53:24;95563.63;;;18.45;100.00
47274;BME280;33007;49.082;19.306;2022-08-21T05:55:51;95614.91;;;18.82;100.00
47274;BME280;33007;49.082;19.306;2022-08-21T05:58:19;95578.75;;;18.65;100.00
47274;BME280;33007;49.082;19.306;2022-08-21T06:00:47;95568.16;;;18.55;100.00
47274;BME280;33007;49.082;19.306;2022-08-21T06:03:25;95555.56;;;18.47;100.00
47274;BME280;33007;49.082;19.306;2022-08-21T06:05:52;95622.75;;;18.91;100.00
47274;BME280;33007;49.082;19.306;2022-08-21T06:08:19;95618.50;;;18.90;100.00
47274;BME280;33007;49.082;19.306;2022-08-21T06:10:46;95589.31;;;18.74;100.00
47274;BME280;33007;49.082;19.306;2022-08-21T06:13:13;95609.00;;;18.91;100.00
47274;BME280;33007;49.082;19.306;2022-08-21T06:15:39;95558.44;;;18.54;100.00
47274;BME280;33007;49.082;19.306;2022-08-21T06:18:05;95589.44;;;18.81;100.00
47274;BME280;33007;49.082;19.306;2022-08-21T06:20:30;95587.09;;;18.86;100.00
47274;BME280;33007;49.082;19.306;2022-08-21T06:22:57;95613.31;;;19.13;100.00
47274;BME280;33007;49.082;19.306;2022-08-21T06:25:22;95575.34;;;18.85;100.00
47274;BME280;33007;49.082;19.306;2022-08-21T06:27:49;95519.22;;;18.54;100.00
47274;BME280;33007;49.082;19.306;2022-08-21T06:30:14;95579.97;;;18.90;100.00
47274;BME280;33007;49.082;19.306;2022-08-21T06:32:40;95566.97;;;18.91;100.00
47274;BME280;33007;49.082;19.306;2022-08-21T06:35:06;95504.19;;;18.55;100.00
47274;BME280;33007;49.082;19.306;2022-08-21T06:37:32;95619.91;;;19.31;100.00
47274;BME280;33007;49.082;19.306;2022-08-21T06:39:58;95542.56;;;18.74;100.00
47274;BME280;33007;49.082;19.306;2022-08-21T06:42:23;95571.50;;;19.01;100.00
47274;BME280;33007;49.082;19.306;2022-08-21T06:44:49;95623.28;;;19.37;100.00
47274;BME280;33007;49.082;19.306;2022-08-21T06:47:15;95632.28;;;19.37;100.00
47274;BME280;33007;49.082;19.306;2022-08-21T06:49:40;95572.16;;;19.07;100.00
47274;BME280;33007;49.082;19.306;2022-08-21T06:52:12;95628.16;;;19.44;100.00
47274;BME280;33007;49.082;19.306;2022-08-21T06:54:39;95631.66;;;19.45;100.00
47274;BME280;33007;49.082;19.306;2022-08-21T06:57:05;95626.88;;;19.45;100.00
47274;BME280;33007;49.082;19.306;2022-08-21T06:59:31;95606.47;;;19.27;100.00
47274;BME280;33007;49.082;19.306;2022-08-21T07:02:03;95563.88;;;19.07;100.00
47274;BME280;33007;49.082;19.306;2022-08-21T07:04:28;95574.22;;;19.15;100.00
47274;BME280;33007;49.082;19.306;2022-08-21T07:06:54;95588.28;;;19.24;100.00
47274;BME280;33007;49.082;19.306;2022-08-21T07:09:20;95555.41;;;19.05;100.00
47274;BME280;33007;49.082;19.306;2022-08-21T07:11:50;95571.69;;;19.17;100.00
47274;BME280;33007;49.082;19.306;2022-08-21T07:14:16;95620.88;;;19.68;100.00
47274;BME280;33007;49.082;19.306;2022-08-21T07:16:41;95547.53;;;19.23;100.00
47274;BME280;33007;49.082;19.306;2022-08-21T07:19:07;95597.38;;;19.67;100.00
47274;BME280;33007;49.082;19.306;2022-08-21T07:21:32;95541.38;;;19.30;100.00
47274;BME280;33007;49.082;19.306;2022-08-21T07:23:58;95557.09;;;19.43;100.00
47274;BME280;33007;49.082;19.306;2022-08-21T07:26:24;95583.63;;;19.67;100.00
47274;BME280;33007;49.082;19.306;2022-08-21T07:28:51;95633.88;;;20.01;100.00
47274;BME280;33007;49.082;19.306;2022-08-21T07:31:19;95638.50;;;20.06;100.00
47274;BME280;33007;49.082;19.306;2022-08-21T07:33:46;95636.84;;;20.03;100.00
47274;BME280;33007;49.082;19.306;2022-08-21T07:36:12;95606.91;;;19.86;100.00
47274;BME280;33007;49.082;19.306;2022-08-21T07:38:38;95614.38;;;19.99;100.00
47274;BME280;33007;49.082;19.306;2022-08-21T07:41:13;95604.25;;;19.94;100.00
47274;BME280;33007;49.082;19.306;2022-08-21T07:43:40;95635.69;;;20.20;100.00
47274;BME280;33007;49.082;19.306;2022-08-21T07:46:05;95588.84;;;19.78;100.00
47274;BME280;33007;49.082;19.306;2022-08-21T07:48:31;95596.16;;;19.96;100.00
47274;BME280;33007;49.082;19.306;2022-08-21T07:50:58;95577.88;;;19.85;100.00
47274;BME280;33007;49.082;19.306;2022-08-21T07:53:24;95602.13;;;20.08;100.00
47274;BME280;33007;49.082;19.306;2022-08-21T07:55:49;95571.50;;;19.91;100.00
47274;BME280;33007;49.082;19.306;2022-08-21T07:58:15;95572.66;;;19.95;100.00
47274;BME280;33007;49.082;19.306;2022-08-21T08:00:41;95576.25;;;20.11;100.00
47274;BME280;33007;49.082;19.306;2022-08-21T08:03:06;95553.44;;;20.03;100.00
47274;BME280;33007;49.082;19.306;2022-08-21T08:05:32;95568.28;;;20.28;100.00
47274;BME280;33007;49.082;19.306;2022-08-21T08:07:58;95555.06;;;20.27;100.00
47274;BME280;33007;49.082;19.306;2022-08-21T08:10:23;95620.06;;;20.72;100.00
47274;BME280;33007;49.082;19.306;2022-08-21T08:12:50;95576.75;;;20.51;100.00
47274;BME280;33007;49.082;19.306;2022-08-21T08:15:21;95606.19;;;20.85;100.00
47274;BME280;33007;49.082;19.306;2022-08-21T08:17:47;95579.31;;;20.78;100.00
47274;BME280;33007;49.082;19.306;2022-08-21T08:20:14;95603.88;;;21.04;100.00
47274;BME280;33007;49.082;19.306;2022-08-21T08:22:41;95561.97;;;20.77;100.00
47274;BME280;33007;49.082;19.306;2022-08-21T08:25:09;95570.31;;;20.85;100.00
47274;BME280;33007;49.082;19.306;2022-08-21T08:27:35;95566.69;;;20.98;100.00
47274;BME280;33007;49.082;19.306;2022-08-21T08:30:00;95546.41;;;20.87;100.00
47274;BME280;33007;49.082;19.306;2022-08-21T08:32:26;95578.88;;;21.10;100.00
47274;BME280;33007;49.082;19.306;2022-08-21T08:34:52;95560.25;;;21.03;100.00
47274;BME280;33007;49.082;19.306;2022-08-21T08:37:19;95600.13;;;21.30;100.00
47274;BME280;33007;49.082;19.306;2022-08-21T08:39:45;95554.94;;;21.05;100.00
47274;BME280;33007;49.082;19.306;2022-08-21T08:42:16;95606.25;;;21.44;100.00
47274;BME280;33007;49.082;19.306;2022-08-21T08:44:46;95541.72;;;21.18;100.00
47274;BME280;33007;49.082;19.306;2022-08-21T08:47:15;95566.28;;;21.37;100.00
47274;BME280;33007;49.082;19.306;2022-08-21T08:52:28;95561.72;;;21.48;100.00
47274;BME280;33007;49.082;19.306;2022-08-21T08:55:07;95604.66;;;21.71;100.00
47274;BME280;33007;49.082;19.306;2022-08-21T08:57:34;95598.78;;;21.83;100.00
47274;BME280;33007;49.082;19.306;2022-08-21T09:00:07;95546.44;;;21.54;100.00
47274;BME280;33007;49.082;19.306;2022-08-21T09:02:42;95596.94;;;21.93;100.00
47274;BME280;33007;49.082;19.306;2022-08-21T09:05:19;95528.00;;;21.57;100.00
47274;BME280;33007;49.082;19.306;2022-08-21T09:08:10;95519.19;;;21.51;98.75
47274;BME280;33007;49.082;19.306;2022-08-21T09:14:00;95537.44;;;21.84;96.97
47274;BME280;33007;49.082;19.306;2022-08-21T09:16:34;95574.31;;;22.17;97.02
47274;BME280;33007;49.082;19.306;2022-08-21T09:24:42;95530.06;;;22.10;96.26
47274;BME280;33007;49.082;19.306;2022-08-21T09:27:15;95572.97;;;22.64;94.42
47274;BME280;33007;49.082;19.306;2022-08-21T09:29:44;95538.91;;;22.39;94.92
47274;BME280;33007;49.082;19.306;2022-08-21T09:32:16;95578.09;;;22.91;93.61
47274;BME280;33007;49.082;19.306;2022-08-21T09:35:18;95579.50;;;23.07;85.38
47274;BME280;33007;49.082;19.306;2022-08-21T09:37:56;95574.84;;;23.17;89.94
47274;BME280;33007;49.082;19.306;2022-08-21T09:42:59;95568.47;;;23.32;86.38
47274;BME280;33007;49.082;19.306;2022-08-21T09:45:25;95522.84;;;23.00;89.68
47274;BME280;33007;49.082;19.306;2022-08-21T09:47:50;95564.97;;;23.32;84.68
47274;BME280;33007;49.082;19.306;2022-08-21T09:50:25;95453.44;;;22.58;86.79
47274;BME280;33007;49.082;19.306;2022-08-21T09:52:54;95549.34;;;23.19;86.21
47274;BME280;33007;49.082;19.306;2022-08-21T09:55:48;95550.81;;;23.20;88.31
47274;BME280;33007;49.082;19.306;2022-08-21T09:58:35;95547.06;;;23.33;87.77
47274;BME280;33007;49.082;19.306;2022-08-21T10:01:04;95527.00;;;23.17;85.59
47274;BME280;33007;49.082;19.306;2022-08-21T10:03:30;95501.09;;;22.97;85.57
47274;BME280;33007;49.082;19.306;2022-08-21T10:06:01;95488.75;;;22.90;85.18
47274;BME280;33007;49.082;19.306;2022-08-21T10:08:32;95539.00;;;23.19;85.62
47274;BME280;33007;49.082;19.306;2022-08-21T10:11:11;95538.28;;;23.19;86.50
47274;BME280;33007;49.082;19.306;2022-08-21T10:13:47;95456.56;;;22.70;86.55
47274;BME280;33007;49.082;19.306;2022-08-21T10:19:36;95539.59;;;23.43;84.69
47274;BME280;33007;49.082;19.306;2022-08-21T10:24:57;95541.13;;;23.69;84.68
47274;BME280;33007;49.082;19.306;2022-08-21T10:30:52;95514.19;;;23.62;83.13
47274;BME280;33007;49.082;19.306;2022-08-21T10:33:31;95494.75;;;23.44;86.31
47274;BME280;33007;49.082;19.306;2022-08-21T10:36:14;95492.13;;;23.46;84.62
47274;BME280;33007;49.082;19.306;2022-08-21T10:39:12;95537.84;;;23.63;84.58
47274;BME280;33007;49.082;19.306;2022-08-21T10:41:58;95503.16;;;23.29;85.12
47274;BME280;33007;49.082;19.306;2022-08-21T10:44:49;95542.50;;;23.52;83.91
47274;BME280;33007;49.082;19.306;2022-08-21T10:47:44;95547.53;;;23.46;87.48
47274;BME280;33007;49.082;19.306;2022-08-21T10:58:25;95507.69;;;23.09;88.02
47274;BME280;33007;49.082;19.306;2022-08-21T11:00:58;95523.13;;;23.20;87.43
47274;BME280;33007;49.082;19.306;2022-08-21T11:03:39;95506.56;;;23.12;86.65
47274;BME280;33007;49.082;19.306;2022-08-21T11:06:18;95496.09;;;23.03;88.19
47274;BME280;33007;49.082;19.306;2022-08-21T11:08:56;95475.28;;;22.87;89.32
47274;BME280;33007;49.082;19.306;2022-08-21T11:11:32;95506.44;;;22.95;89.58
47274;BME280;33007;49.082;19.306;2022-08-21T11:17:00;95534.84;;;23.03;93.59
47274;BME280;33007;49.082;19.306;2022-08-21T11:22:13;95537.63;;;23.03;94.54
47274;BME280;33007;49.082;19.306;2022-08-21T11:24:56;95487.00;;;22.62;96.10
47274;BME280;33007;49.082;19.306;2022-08-21T11:27:41;95518.25;;;22.95;94.72
47274;BME280;33007;49.082;19.306;2022-08-21T11:30:08;95481.78;;;22.74;92.87
47274;BME280;33007;49.082;19.306;2022-08-21T11:33:08;95515.47;;;23.03;89.57
47274;BME280;33007;49.082;19.306;2022-08-21T11:38:22;95533.53;;;23.12;90.67
47274;BME280;33007;49.082;19.306;2022-08-21T11:40:59;95532.25;;;23.05;94.61
47274;BME280;33007;49.082;19.306;2022-08-21T11:43:35;95533.03;;;22.98;94.97
47274;BME280;33007;49.082;19.306;2022-08-21T11:51:15;95537.09;;;22.89;93.33
47274;BME280;33007;49.082;19.306;2022-08-21T11:56:38;95515.34;;;22.86;96.42
47274;BME280;33007;49.082;19.306;2022-08-21T11:59:18;95505.63;;;22.69;97.89
47274;BME280;33007;49.082;19.306;2022-08-21T12:01:46;95528.59;;;22.87;97.63
47274;BME280;33007;49.082;19.306;2022-08-21T12:04:29;95527.50;;;22.83;92.78
47274;BME280;33007;49.082;19.306;2022-08-21T12:06:56;95528.09;;;22.81;98.38
47274;BME280;33007;49.082;19.306;2022-08-21T12:14:47;95501.56;;;22.70;96.65
47274;BME280;33007;49.082;19.306;2022-08-21T12:17:24;95522.16;;;22.85;99.13
47274;BME280;33007;49.082;19.306;2022-08-21T12:20:00;95536.19;;;22.87;97.79
47274;BME280;33007;49.082;19.306;2022-08-21T12:22:38;95506.88;;;22.76;98.31
47274;BME280;33007;49.082;19.306;2022-08-21T12:25:10;95532.31;;;22.90;97.54
47274;BME280;33007;49.082;19.306;2022-08-21T12:28:08;95543.22;;;22.88;96.05
47274;BME280;33007;49.082;19.306;2022-08-21T12:30:40;95558.13;;;22.85;95.42
47274;BME280;33007;49.082;19.306;2022-08-21T12:36:21;95512.75;;;22.32;91.84
47274;BME280;33007;49.082;19.306;2022-08-21T12:38:59;95556.75;;;22.53;92.52
47274;BME280;33007;49.082;19.306;2022-08-21T12:41:55;95545.91;;;22.32;91.51
47274;BME280;33007;49.082;19.306;2022-08-21T12:44:34;95517.75;;;22.11;91.25
47274;BME280;33007;49.082;19.306;2022-08-21T12:47:34;95541.88;;;22.18;92.14
47274;BME280;33007;49.082;19.306;2022-08-21T12:50:06;95541.69;;;22.16;92.16
47274;BME280;33007;49.082;19.306;2022-08-21T12:52:39;95558.66;;;22.12;91.90
47274;BME280;33007;49.082;19.306;2022-08-21T12:55:13;95495.44;;;21.63;91.94
47274;BME280;33007;49.082;19.306;2022-08-21T12:57:41;95509.81;;;21.69;92.50
47274;BME280;33007;49.082;19.306;2022-08-21T13:00:10;95554.97;;;21.94;92.74
47274;BME280;33007;49.082;19.306;2022-08-21T13:02:45;95504.81;;;21.37;91.75
47274;BME280;33007;49.082;19.306;2022-08-21T13:05:15;95544.41;;;21.55;92.09
47274;BME280;33007;49.082;19.306;2022-08-21T13:07:45;95554.72;;;21.47;92.60
47274;BME280;33007;49.082;19.306;2022-08-21T13:10:28;95564.31;;;21.53;93.99
47274;BME280;33007;49.082;19.306;2022-08-21T13:16:26;95544.13;;;21.22;94.67
47274;BME280;33007;49.082;19.306;2022-08-21T13:19:05;95556.81;;;21.17;94.56
47274;BME280;33007;49.082;19.306;2022-08-21T13:21:41;95580.47;;;21.41;95.01
47274;BME280;33007;49.082;19.306;2022-08-21T13:24:20;95580.94;;;21.25;95.95
47274;BME280;33007;49.082;19.306;2022-08-21T13:26:46;95530.00;;;20.82;97.62
47274;BME280;33007;49.082;19.306;2022-08-21T13:29:15;95591.41;;;21.18;98.84
47274;BME280;33007;49.082;19.306;2022-08-21T13:31:51;95592.13;;;21.11;99.91
47274;BME280;33007;49.082;19.306;2022-08-21T13:34:19;95591.34;;;21.03;97.56
47274;BME280;33007;49.082;19.306;2022-08-21T13:36:46;95558.63;;;20.63;98.70
47274;BME280;33007;49.082;19.306;2022-08-21T13:39:16;95596.44;;;20.84;99.72
47274;BME280;33007;49.082;19.306;2022-08-21T13:41:46;95572.72;;;20.52;99.60
47274;BME280;33007;49.082;19.306;2022-08-21T13:44:34;95612.16;;;20.68;99.28
47274;BME280;33007;49.082;19.306;2022-08-21T13:47:03;95614.19;;;20.67;99.70
47274;BME280;33007;49.082;19.306;2022-08-21T13:49:33;95575.09;;;20.27;100.00
47274;BME280;33007;49.082;19.306;2022-08-21T13:51:59;95547.94;;;20.03;100.00
47274;BME280;33007;49.082;19.306;2022-08-21T13:54:33;95629.69;;;20.50;100.00